Time;durP1;ratioP1;P1;durP2;ratioP2;P2;SDS_P1;SDS_P2;PMS_P1;PMS_P2;Temp;Humidity;BMP_temperature;BMP_pressure;BME280_temperature;BME280_humidity;BME280_pressure;Samples;Min_cycle;Max_cycle;Signal;HPM_P1;HPM_P2
2022/12/05 00:02:27;;;;;;;;;;;4.20;99.90;;;;;;4972490;28;19926;-92
2022/12/05 00:04:56;;;;;;;;;;;4.00;99.90;;;;;;4981354;28;20410;-93
2022/12/05 00:10:59;;;;;;;;;;;4.20;99.90;;;;;;5015561;28;20449;-92
2022/12/05 00:13:28;;;;;;;;;;;4.20;99.90;;;;;;4998629;28;19976;-93
2022/12/05 00:16:47;;;;;;;;;;;4.10;99.90;;;;;;4982169;28;19925;-94
2022/12/05 00:22:28;;;;;;;;;;;5.30;99.90;;;;;;4975006;28;19952;-93
2022/12/05 00:25:05;;;;;;;;;;;4.30;99.90;;;;;;4942062;28;20418;-93
2022/12/05 00:27:33;;;;;;;;;;;5.30;99.90;;;;;;4943735;28;19927;-93
2022/12/05 00:29:59;;;;;;;;;;;3.90;99.90;;;;;;5018622;28;19936;-94
2022/12/05 00:32:25;;;;;;;;;;;4.20;99.90;;;;;;5020966;28;19914;-93
2022/12/05 00:35:29;;;;;;;;;;;4.20;99.90;;;;;;5020260;28;19914;-94
2022/12/05 00:38:00;;;;;;;;;;;4.30;99.90;;;;;;5007184;28;19925;-92
2022/12/05 00:40:29;;;;;;;;;;;4.30;99.90;;;;;;5011580;28;19928;-92
2022/12/05 00:43:09;;;;;;;;;;;4.40;99.90;;;;;;5006594;28;19915;-89
2022/12/05 00:45:35;;;;;;;;;;;4.40;99.90;;;;;;5017713;28;19914;-91
2022/12/05 00:48:03;;;;;;;;;;;3.50;99.90;;;;;;5017546;28;19969;-90
2022/12/05 00:50:33;;;;;;;;;;;5.50;99.90;;;;;;5028484;28;19913;-91
2022/12/05 00:53:22;;;;;;;;;;;5.50;99.90;;;;;;5015714;28;19979;-93
2022/12/05 00:55:50;;;;;;;;;;;4.30;99.90;;;;;;5014446;28;19926;-92
2022/12/05 00:58:16;;;;;;;;;;;3.50;99.90;;;;;;4997594;28;19995;-92
2022/12/05 01:00:42;;;;;;;;;;;4.60;99.90;;;;;;4998206;28;19927;-94
2022/12/05 01:03:34;;;;;;;;;;;4.40;99.90;;;;;;4997906;28;19988;-93
2022/12/05 01:09:25;;;;;;;;;;;4.50;99.90;;;;;;4994162;28;19972;-93
2022/12/05 01:12:07;;;;;;;;;;;;;;;;;;;;;
2022/12/05 01:14:38;;;;;;;;;;;5.80;99.90;;;;;;5011464;28;19988;-92
2022/12/05 01:17:15;;;;;;;;;;;5.40;99.90;;;;;;4996808;28;20280;-91
2022/12/05 01:19:46;;;;;;;;;;;3.40;99.90;;;;;;4998603;28;19972;-92
2022/12/05 01:22:27;;;;;;;;;;;4.70;99.90;;;;;;5011934;28;19925;-92
2022/12/05 01:24:57;;;;;;;;;;;4.50;99.90;;;;;;4997621;28;19935;-92
2022/12/05 01:27:27;;;;;;;;;;;4.50;99.90;;;;;;4997383;28;20016;-91
2022/12/05 01:29:55;;;;;;;;;;;4.40;99.90;;;;;;5012838;28;20412;-91
2022/12/05 01:32:21;;;;;;;;;;;4.50;99.90;;;;;;4997160;28;20341;-93
2022/12/05 01:34:47;;;;;;;;;;;4.50;99.90;;;;;;4997594;28;20016;-92
2022/12/05 01:37:23;;;;;;;;;;;;;;;;;;;;;
2022/12/05 01:40:32;;;;;;;;;;;4.50;99.90;;;;;;5008312;28;19972;-93
2022/12/05 01:43:03;;;;;;;;;;;4.50;99.90;;;;;;4997506;28;19925;-93
2022/12/05 01:45:44;;;;;;;;;;;4.60;99.90;;;;;;4998356;28;19925;-91
2022/12/05 01:51:36;;;;;;;;;;;4.70;99.90;;;;;;5017780;28;19964;-92
2022/12/05 01:57:29;;;;;;;;;;;4.20;99.90;;;;;;5017155;28;19924;-94
2022/12/05 02:06:53;;;;;;;;;;;4.80;99.90;;;;;;5005425;28;19929;-93
2022/12/05 02:09:27;;;;;;;;;;;4.90;99.90;;;;;;5001138;28;20020;-94
2022/12/05 02:12:31;;;;;;;;;;;4.70;99.90;;;;;;4988216;28;19960;-93
2022/12/05 02:18:49;;;;;;;;;;;4.10;99.90;;;;;;5016897;28;19967;-93
2022/12/05 02:25:18;;;;;;;;;;;4.90;99.90;;;;;;5016764;28;19940;-93
2022/12/05 02:27:50;;;;;;;;;;;5.00;99.90;;;;;;5010631;28;19925;-93
2022/12/05 02:30:45;;;;;;;;;;;6.30;99.90;;;;;;4997403;28;19930;-93
2022/12/05 02:33:34;;;;;;;;;;;5.00;99.90;;;;;;4998705;28;20329;-94
2022/12/05 02:37:06;;;;;;;;;;;5.00;99.90;;;;;;4979707;28;20006;-93
2022/12/05 02:43:19;;;;;;;;;;;4.50;99.90;;;;;;4956357;29;19920;-91
2022/12/05 02:55:58;;;;;;;;;;;4.90;99.90;;;;;;4995636;28;19933;-91
2022/12/05 03:01:48;;;;;;;;;;;4.90;99.90;;;;;;5002482;28;20286;-93
2022/12/05 03:04:50;;;;;;;;;;;4.90;99.90;;;;;;4969932;28;19949;-92
2022/12/05 03:10:53;;;;;;;;;;;;;;;;;;;;;
2022/12/05 03:17:01;;;;;;;;;;;;;;;;;;;;;
2022/12/05 03:19:57;;;;;;;;;;;4.80;99.90;;;;;;5001771;28;20364;-91
2022/12/05 03:25:47;;;;;;;;;;;4.90;99.90;;;;;;5028919;28;20388;-92
2022/12/05 03:32:03;;;;;;;;;;;4.90;99.90;;;;;;4975553;28;19929;-93
2022/12/05 03:38:14;;;;;;;;;;;4.90;99.90;;;;;;5014774;28;19924;-95
2022/12/05 03:47:43;;;;;;;;;;;3.90;99.90;;;;;;5025634;28;20018;-92
2022/12/05 03:50:42;;;;;;;;;;;4.40;99.90;;;;;;4992870;28;20407;-92
2022/12/05 03:53:23;;;;;;;;;;;4.90;99.90;;;;;;5009989;28;19925;-94
2022/12/05 04:03:50;;;;;;;;;;;4.90;99.90;;;;;;5034816;28;19920;-92
2022/12/05 04:06:40;;;;;;;;;;;4.80;99.90;;;;;;4986099;28;19953;-93
2022/12/05 04:12:34;;;;;;;;;;;4.90;99.90;;;;;;5006385;28;19940;-93
2022/12/05 04:18:27;;;;;;;;;;;4.80;99.90;;;;;;5016399;28;19996;-93
2022/12/05 04:31:12;;;;;;;;;;;4.80;99.90;;;;;;5014780;28;19920;-93
2022/12/05 04:37:11;;;;;;;;;;;4.90;99.90;;;;;;5014795;28;20328;-89
2022/12/05 04:39:55;;;;;;;;;;;4.90;99.90;;;;;;4975192;28;20017;-90
2022/12/05 04:42:35;;;;;;;;;;;;;;;;;;;;;
2022/12/05 04:45:08;;;;;;;;;;;5.70;99.90;;;;;;4987408;28;19926;-91
2022/12/05 04:47:49;;;;;;;;;;;4.90;99.90;;;;;;5009020;28;19948;-89
2022/12/05 04:50:15;;;;;;;;;;;5.10;99.90;;;;;;4970506;28;19925;-89
2022/12/05 04:52:45;;;;;;;;;;;4.90;99.90;;;;;;4979081;28;19925;-90
2022/12/05 04:55:35;;;;;;;;;;;4.90;99.90;;;;;;4980663;28;19925;-93
2022/12/05 04:58:56;;;;;;;;;;;5.30;99.90;;;;;;5014155;28;19984;-92
2022/12/05 05:01:24;;;;;;;;;;;4.80;99.90;;;;;;4980890;28;19947;-94
2022/12/05 05:04:11;;;;;;;;;;;4.90;99.90;;;;;;4981732;28;19973;-92
2022/12/05 05:06:45;;;;;;;;;;;3.80;99.90;;;;;;4977062;28;19999;-94
2022/12/05 05:09:26;;;;;;;;;;;5.00;99.90;;;;;;4974983;28;20029;-92
2022/12/05 05:12:21;;;;;;;;;;;4.80;99.90;;;;;;4961453;28;20039;-93
2022/12/05 05:14:52;;;;;;;;;;;4.90;99.90;;;;;;4953894;28;20017;-91
2022/12/05 05:17:54;;;;;;;;;;;4.60;99.90;;;;;;4960982;28;19929;-92
2022/12/05 05:20:25;;;;;;;;;;;4.80;99.90;;;;;;4931454;28;20384;-95
2022/12/05 05:29:57;;;;;;;;;;;4.70;99.90;;;;;;4997949;28;20393;-93
2022/12/05 05:32:39;;;;;;;;;;;4.00;99.90;;;;;;4964604;28;19926;-91
2022/12/05 05:35:10;;;;;;;;;;;4.70;99.90;;;;;;4982094;28;19933;-93
2022/12/05 05:40:47;;;;;;;;;;;4.70;99.90;;;;;;4990700;28;19933;-94
2022/12/05 05:43:15;;;;;;;;;;;4.90;99.90;;;;;;4984476;28;19925;-92
2022/12/05 05:45:43;;;;;;;;;;;4.00;99.90;;;;;;5000594;28;19949;-93
2022/12/05 05:48:08;;;;;;;;;;;4.90;99.90;;;;;;4984626;28;19925;-93
2022/12/05 05:50:45;;;;;;;;;;;4.30;99.90;;;;;;4984796;28;19934;-93
2022/12/05 05:53:10;;;;;;;;;;;4.80;99.90;;;;;;4983750;28;19929;-92
2022/12/05 05:56:06;;;;;;;;;;;5.00;99.90;;;;;;4984280;28;19952;-91
2022/12/05 05:58:44;;;;;;;;;;;3.80;99.90;;;;;;4984120;28;20024;-92
2022/12/05 06:04:10;;;;;;;;;;;4.70;99.90;;;;;;4981260;28;19926;-93
2022/12/05 06:10:02;;;;;;;;;;;4.80;99.90;;;;;;5001323;28;19987;-92
2022/12/05 06:12:35;;;;;;;;;;;4.90;99.90;;;;;;4964046;28;19925;-93
2022/12/05 06:15:03;;;;;;;;;;;4.10;99.90;;;;;;4963788;28;20373;-93
2022/12/05 06:17:39;;;;;;;;;;;4.80;99.90;;;;;;4963350;28;19926;-92
2022/12/05 06:20:08;;;;;;;;;;;4.90;99.90;;;;;;4964105;28;19996;-92
2022/12/05 06:22:34;;;;;;;;;;;3.90;99.90;;;;;;4965025;28;19926;-91
2022/12/05 06:24:59;;;;;;;;;;;4.90;99.90;;;;;;4963932;28;20388;-91
2022/12/05 06:27:27;;;;;;;;;;;4.90;99.90;;;;;;4961030;28;19950;-90
2022/12/05 06:29:53;;;;;;;;;;;4.90;99.90;;;;;;4944592;28;20431;-92
2022/12/05 06:32:21;;;;;;;;;;;4.90;99.90;;;;;;4943555;28;19926;-92
2022/12/05 06:35:06;;;;;;;;;;;;;;;;;;;;;
2022/12/05 06:37:36;;;;;;;;;;;4.90;99.90;;;;;;4978050;28;19948;-91
2022/12/05 06:40:02;;;;;;;;;;;4.90;99.90;;;;;;4960150;28;19977;-89
2022/12/05 06:42:29;;;;;;;;;;;4.90;99.90;;;;;;4953534;28;19929;-91
2022/12/05 06:44:55;;;;;;;;;;;4.90;99.90;;;;;;4962733;28;19933;-88
2022/12/05 06:47:21;;;;;;;;;;;5.00;99.90;;;;;;4962991;28;19926;-91
2022/12/05 06:49:47;;;;;;;;;;;6.10;99.90;;;;;;4963019;28;19981;-90
2022/12/05 06:52:12;;;;;;;;;;;4.90;99.90;;;;;;4963191;28;20009;-87
2022/12/05 06:54:38;;;;;;;;;;;5.70;99.90;;;;;;4966786;28;19926;-89
2022/12/05 06:57:08;;;;;;;;;;;4.90;99.90;;;;;;4983209;28;19977;-93
2022/12/05 06:59:39;;;;;;;;;;;4.90;99.90;;;;;;4996513;28;20009;-91
2022/12/05 07:02:07;;;;;;;;;;;5.80;99.90;;;;;;4964309;28;19926;-89
2022/12/05 07:04:32;;;;;;;;;;;5.40;99.90;;;;;;4986939;28;19978;-89
2022/12/05 07:07:01;;;;;;;;;;;5.00;99.90;;;;;;4984429;28;19913;-90
2022/12/05 07:09:44;;;;;;;;;;;5.00;99.90;;;;;;4979842;28;19930;-90
2022/12/05 07:12:10;;;;;;;;;;;5.00;99.90;;;;;;4980012;28;19926;-89
2022/12/05 07:14:43;;;;;;;;;;;5.10;99.90;;;;;;4981712;28;19930;-91
2022/12/05 07:17:12;;;;;;;;;;;5.00;99.90;;;;;;4981649;28;19925;-91
2022/12/05 07:19:38;;;;;;;;;;;4.40;99.90;;;;;;4997935;28;19925;-91
2022/12/05 07:22:04;;;;;;;;;;;6.10;99.90;;;;;;4982170;28;19933;-91
2022/12/05 07:24:29;;;;;;;;;;;5.00;99.90;;;;;;4997626;28;19941;-90
2022/12/05 07:27:00;;;;;;;;;;;5.40;99.90;;;;;;4965637;28;20007;-90
2022/12/05 07:29:31;;;;;;;;;;;4.90;99.90;;;;;;4962932;28;20362;-88
2022/12/05 07:32:00;;;;;;;;;;;4.90;99.90;;;;;;4977897;28;19925;-91
2022/12/05 07:34:28;;;;;;;;;;;5.00;99.90;;;;;;4978061;28;19933;-89
2022/12/05 07:36:56;;;;;;;;;;;4.90;99.90;;;;;;4978224;28;19932;-90
2022/12/05 07:39:32;;;;;;;;;;;4.00;99.90;;;;;;4977687;28;20415;-91
2022/12/05 07:41:57;;;;;;;;;;;4.90;99.90;;;;;;4978354;28;19933;-90
2022/12/05 07:44:26;;;;;;;;;;;4.90;99.90;;;;;;4989397;28;19925;-91
2022/12/05 07:46:52;;;;;;;;;;;4.50;99.90;;;;;;5000209;28;19925;-89
2022/12/05 07:49:17;;;;;;;;;;;5.00;99.90;;;;;;5001069;28;20015;-90
2022/12/05 07:51:45;;;;;;;;;;;4.90;99.90;;;;;;5023183;28;19988;-90
2022/12/05 07:54:11;;;;;;;;;;;4.90;99.90;;;;;;5025556;28;19925;-90
2022/12/05 07:56:42;;;;;;;;;;;5.00;99.90;;;;;;5008758;28;19932;-90
2022/12/05 07:59:10;;;;;;;;;;;5.00;99.90;;;;;;5005124;28;19944;-90
2022/12/05 08:01:36;;;;;;;;;;;5.00;99.90;;;;;;4999494;28;19952;-90
2022/12/05 08:04:04;;;;;;;;;;;5.00;99.90;;;;;;4982135;28;19930;-89
2022/12/05 08:06:32;;;;;;;;;;;6.50;99.90;;;;;;4981789;28;19925;-89
2022/12/05 08:09:01;;;;;;;;;;;5.50;99.90;;;;;;4982617;28;19929;-91
2022/12/05 08:11:29;;;;;;;;;;;5.90;99.90;;;;;;4981682;28;19953;-91
2022/12/05 08:13:55;;;;;;;;;;;5.80;99.90;;;;;;4982103;28;20300;-91
2022/12/05 08:16:22;;;;;;;;;;;5.40;99.90;;;;;;4966524;28;20312;-91
2022/12/05 08:18:55;;;;;;;;;;;5.10;99.90;;;;;;4981169;28;19929;-90
2022/12/05 08:21:21;;;;;;;;;;;5.90;99.90;;;;;;4981609;28;19925;-92
2022/12/05 08:23:49;;;;;;;;;;;5.00;99.90;;;;;;4984334;28;19983;-91
2022/12/05 08:26:20;;;;;;;;;;;5.10;99.90;;;;;;4983410;28;19932;-91
2022/12/05 08:28:46;;;;;;;;;;;5.00;99.90;;;;;;4981916;28;19925;-91
2022/12/05 08:31:16;;;;;;;;;;;5.00;99.90;;;;;;4980599;28;19929;-90
2022/12/05 08:33:42;;;;;;;;;;;5.00;99.90;;;;;;4981091;28;19926;-91
2022/12/05 08:36:14;;;;;;;;;;;5.10;99.90;;;;;;4980750;28;20243;-91
2022/12/05 08:38:40;;;;;;;;;;;4.60;99.90;;;;;;4996594;28;20000;-91
2022/12/05 08:41:08;;;;;;;;;;;5.50;99.90;;;;;;4981573;28;19930;-91
2022/12/05 08:43:36;;;;;;;;;;;5.00;99.90;;;;;;4997037;28;20033;-91
2022/12/05 08:46:02;;;;;;;;;;;5.00;99.90;;;;;;4980739;28;20381;-90
2022/12/05 08:48:32;;;;;;;;;;;5.80;99.90;;;;;;4996866;28;20266;-92
2022/12/05 08:51:00;;;;;;;;;;;5.10;99.90;;;;;;4980482;28;20344;-91
2022/12/05 08:53:26;;;;;;;;;;;5.40;99.90;;;;;;4980284;28;19925;-90
2022/12/05 08:55:51;;;;;;;;;;;5.00;99.90;;;;;;4981233;28;19933;-90
2022/12/05 08:58:22;;;;;;;;;;;5.90;99.90;;;;;;4984843;28;19925;-91
2022/12/05 09:00:50;;;;;;;;;;;5.10;99.90;;;;;;4984578;28;19972;-91
2022/12/05 09:03:16;;;;;;;;;;;5.10;99.90;;;;;;4984386;28;19929;-90
2022/12/05 09:05:41;;;;;;;;;;;5.00;99.90;;;;;;4984573;28;20016;-91
2022/12/05 09:08:12;;;;;;;;;;;5.10;99.90;;;;;;4999533;28;20016;-91
2022/12/05 09:10:38;;;;;;;;;;;5.20;99.90;;;;;;5013869;28;19932;-92
2022/12/05 09:13:06;;;;;;;;;;;5.10;99.90;;;;;;5004267;28;19924;-92
2022/12/05 09:15:32;;;;;;;;;;;5.00;99.90;;;;;;5003666;28;19929;-91
2022/12/05 09:18:00;;;;;;;;;;;5.00;99.90;;;;;;5003572;28;19932;-92
2022/12/05 09:20:31;;;;;;;;;;;5.00;99.90;;;;;;5004952;28;19960;-92
2022/12/05 09:22:57;;;;;;;;;;;5.20;99.90;;;;;;5019748;28;20218;-92
2022/12/05 09:25:22;;;;;;;;;;;5.30;99.90;;;;;;4992840;28;19936;-91
2022/12/05 09:27:48;;;;;;;;;;;5.50;99.90;;;;;;4983593;28;19932;-91
2022/12/05 09:30:14;;;;;;;;;;;5.00;99.90;;;;;;4984035;28;19926;-92
2022/12/05 09:32:42;;;;;;;;;;;4.40;99.90;;;;;;4967700;28;19933;-91
2022/12/05 09:35:18;;;;;;;;;;;5.10;99.90;;;;;;4984145;28;19925;-92
2022/12/05 09:37:44;;;;;;;;;;;5.10;99.90;;;;;;4983528;28;20368;-91
2022/12/05 09:40:16;;;;;;;;;;;5.20;99.90;;;;;;4983979;28;19932;-92
2022/12/05 09:42:42;;;;;;;;;;;5.20;99.90;;;;;;5000239;28;19929;-91
2022/12/05 09:45:17;;;;;;;;;;;4.90;99.90;;;;;;4988700;28;20261;-91
2022/12/05 09:47:56;;;;;;;;;;;5.00;99.90;;;;;;4991810;28;19933;-91
2022/12/05 09:50:37;;;;;;;;;;;5.10;99.90;;;;;;4983680;28;19933;-91
2022/12/05 09:53:10;;;;;;;;;;;5.10;99.90;;;;;;4963985;28;19926;-92
2022/12/05 09:55:42;;;;;;;;;;;5.10;99.90;;;;;;4996554;28;20008;-91
2022/12/05 09:58:28;;;;;;;;;;;5.30;99.90;;;;;;4983596;28;19965;-91
2022/12/05 10:01:11;;;;;;;;;;;6.40;99.90;;;;;;4988694;28;19933;-92
2022/12/05 10:03:44;;;;;;;;;;;5.10;99.90;;;;;;4983551;28;20399;-92
2022/12/05 10:06:10;;;;;;;;;;;5.20;99.90;;;;;;4982699;28;19932;-91
2022/12/05 10:08:44;;;;;;;;;;;5.20;99.90;;;;;;4982905;28;19925;-90
2022/12/05 10:11:18;;;;;;;;;;;5.10;99.90;;;;;;4977296;28;19938;-90
2022/12/05 10:13:54;;;;;;;;;;;5.10;99.90;;;;;;4991680;28;20345;-92
2022/12/05 10:16:35;;;;;;;;;;;5.10;99.90;;;;;;5005467;28;19926;-91
2022/12/05 10:19:13;;;;;;;;;;;5.20;99.90;;;;;;4997819;28;19926;-92
2022/12/05 10:21:58;;;;;;;;;;;5.20;99.90;;;;;;4976194;28;20330;-92
2022/12/05 10:24:37;;;;;;;;;;;5.20;99.90;;;;;;4994727;28;19925;-93
2022/12/05 10:27:09;;;;;;;;;;;5.30;99.90;;;;;;5001826;28;19933;-92
2022/12/05 10:29:43;;;;;;;;;;;5.10;99.90;;;;;;4983453;28;20007;-91
2022/12/05 10:32:28;;;;;;;;;;;;;;;;;;;;;
2022/12/05 10:35:11;;;;;;;;;;;5.20;99.90;;;;;;5002533;28;19929;-90
2022/12/05 10:37:48;;;;;;;;;;;5.10;99.90;;;;;;5008593;28;20345;-94
2022/12/05 10:40:20;;;;;;;;;;;5.20;99.90;;;;;;4982040;28;19925;-92
2022/12/05 10:45:45;;;;;;;;;;;5.20;99.90;;;;;;4994573;28;19926;-91
2022/12/05 10:48:18;;;;;;;;;;;5.30;99.90;;;;;;4962500;28;19926;-93
2022/12/05 10:50:48;;;;;;;;;;;5.10;99.90;;;;;;4964370;28;19925;-91
2022/12/05 10:53:28;;;;;;;;;;;5.30;99.90;;;;;;4987455;28;20316;-88
2022/12/05 10:55:56;;;;;;;;;;;5.20;99.90;;;;;;5009773;28;19925;-90
2022/12/05 10:58:27;;;;;;;;;;;5.20;99.90;;;;;;5029037;28;19925;-90
2022/12/05 11:01:01;;;;;;;;;;;5.10;99.90;;;;;;5010796;28;19925;-93
2022/12/05 11:03:39;;;;;;;;;;;;;;;;;;;;;
2022/12/05 11:06:16;;;;;;;;;;;5.10;99.90;;;;;;5016858;28;19969;-94
2022/12/05 11:08:50;;;;;;;;;;;5.20;99.90;;;;;;4995783;28;20294;-92
2022/12/05 11:11:23;;;;;;;;;;;5.20;99.90;;;;;;4884675;28;3102192;-90
2022/12/05 11:13:53;;;;;;;;;;;5.20;99.90;;;;;;4978509;28;19992;-92
2022/12/05 11:16:26;;;;;;;;;;;5.30;99.90;;;;;;4989604;28;20015;-90
2022/12/05 11:18:55;;;;;;;;;;;5.20;99.90;;;;;;4997746;28;19980;-91
2022/12/05 11:21:25;;;;;;;;;;;5.20;99.90;;;;;;4980996;28;20370;-90
2022/12/05 11:24:01;;;;;;;;;;;;;;;;;;;;;
2022/12/05 11:26:44;;;;;;;;;;;5.30;99.90;;;;;;5017490;28;20012;-90
2022/12/05 11:29:29;;;;;;;;;;;5.20;99.90;;;;;;4986331;28;19975;-91
2022/12/05 11:32:19;;;;;;;;;;;5.20;99.90;;;;;;4987567;28;20024;-92
2022/12/05 11:34:49;;;;;;;;;;;5.10;99.90;;;;;;5014462;28;19956;-92
2022/12/05 11:37:24;;;;;;;;;;;5.10;99.90;;;;;;4972606;28;19936;-88
2022/12/05 11:39:54;;;;;;;;;;;5.10;99.90;;;;;;4988435;28;19973;-91
2022/12/05 11:42:41;;;;;;;;;;;5.10;99.90;;;;;;4981290;28;20000;-89
2022/12/05 11:45:27;;;;;;;;;;;5.10;99.90;;;;;;4984490;28;19929;-89
2022/12/05 11:48:14;;;;;;;;;;;5.10;99.90;;;;;;4996049;28;19934;-91
2022/12/05 11:50:59;;;;;;;;;;;5.20;99.90;;;;;;5000413;28;19929;-90
2022/12/05 11:53:38;;;;;;;;;;;5.10;99.90;;;;;;4998908;28;19952;-90
2022/12/05 11:56:18;;;;;;;;;;;5.10;99.90;;;;;;5009748;28;19929;-90
2022/12/05 11:59:08;;;;;;;;;;;5.10;99.90;;;;;;4992746;28;20293;-88
2022/12/05 12:01:57;;;;;;;;;;;4.50;99.90;;;;;;4995521;28;19926;-89
2022/12/05 12:04:31;;;;;;;;;;;5.00;99.90;;;;;;4979373;28;19949;-89
2022/12/05 12:07:06;;;;;;;;;;;5.00;99.90;;;;;;4992056;28;19936;-91
2022/12/05 12:09:50;;;;;;;;;;;5.30;99.90;;;;;;4986375;28;19933;-91
2022/12/05 12:12:15;;;;;;;;;;;5.10;99.90;;;;;;4996767;28;19925;-90
2022/12/05 12:15:02;;;;;;;;;;;5.00;99.90;;;;;;4996217;28;19951;-90
2022/12/05 12:17:48;;;;;;;;;;;5.00;99.90;;;;;;4979954;28;19925;-89
2022/12/05 12:20:14;;;;;;;;;;;5.10;99.90;;;;;;4979674;28;19925;-89
2022/12/05 12:23:00;;;;;;;;;;;5.10;99.90;;;;;;4977292;28;20282;-89
2022/12/05 12:25:31;;;;;;;;;;;4.80;99.90;;;;;;4986551;28;20310;-89
2022/12/05 12:28:16;;;;;;;;;;;5.10;99.90;;;;;;4980425;28;19926;-91
2022/12/05 12:31:01;;;;;;;;;;;5.30;99.90;;;;;;4995988;28;19925;-89
2022/12/05 12:33:38;;;;;;;;;;;5.10;99.90;;;;;;4987771;28;19929;-89
2022/12/05 12:36:07;;;;;;;;;;;5.10;99.90;;;;;;4981679;28;19926;-90
2022/12/05 12:38:35;;;;;;;;;;;5.20;99.90;;;;;;4982468;28;19925;-91
2022/12/05 12:41:22;;;;;;;;;;;5.20;99.90;;;;;;4981080;28;19933;-91
2022/12/05 12:43:51;;;;;;;;;;;5.10;99.90;;;;;;4983977;28;19942;-91
2022/12/05 12:46:52;;;;;;;;;;;5.10;99.90;;;;;;5005472;28;19976;-91
2022/12/05 12:49:38;;;;;;;;;;;5.80;99.90;;;;;;4985470;28;19971;-90
2022/12/05 12:52:11;;;;;;;;;;;5.10;99.90;;;;;;5009391;28;19930;-91
2022/12/05 12:54:55;;;;;;;;;;;5.20;99.90;;;;;;4987530;28;20020;-92
2022/12/05 12:57:51;;;;;;;;;;;;;;;;;;;;;
2022/12/05 13:00:17;;;;;;;;;;;4.20;99.90;;;;;;4999565;28;19937;-90
2022/12/05 13:02:50;;;;;;;;;;;5.20;99.90;;;;;;4982747;28;19933;-89
2022/12/05 13:05:33;;;;;;;;;;;5.10;99.90;;;;;;4985310;28;19972;-91
2022/12/05 13:08:04;;;;;;;;;;;5.60;99.90;;;;;;4989141;28;20045;-91
2022/12/05 13:10:39;;;;;;;;;;;5.00;99.90;;;;;;5010551;28;19931;-89
2022/12/05 13:13:06;;;;;;;;;;;4.10;99.90;;;;;;4979243;28;20019;-88
2022/12/05 13:15:34;;;;;;;;;;;5.10;99.90;;;;;;4996222;28;19929;-89
2022/12/05 13:18:05;;;;;;;;;;;4.30;99.90;;;;;;4979620;28;20344;-89
2022/12/05 13:20:32;;;;;;;;;;;4.10;99.90;;;;;;4994340;28;20293;-89
2022/12/05 13:23:06;;;;;;;;;;;5.00;99.90;;;;;;4996655;28;19925;-89
2022/12/05 13:25:37;;;;;;;;;;;4.70;99.90;;;;;;4974318;28;19925;-91
2022/12/05 13:28:07;;;;;;;;;;;4.20;99.90;;;;;;4968537;28;20410;-90
2022/12/05 13:30:56;;;;;;;;;;;5.10;99.90;;;;;;4976439;28;20281;-89
2022/12/05 13:33:24;;;;;;;;;;;5.00;99.90;;;;;;4973447;28;20329;-91
2022/12/05 13:44:32;;;;;;;;;;;5.10;99.90;;;;;;4978566;28;20277;-89
2022/12/05 13:46:58;;;;;;;;;;;5.10;99.90;;;;;;4997936;28;19933;-89
2022/12/05 13:49:32;;;;;;;;;;;5.90;99.90;;;;;;4988922;28;19987;-90
2022/12/05 13:52:11;;;;;;;;;;;5.10;99.90;;;;;;4992264;28;19932;-90
2022/12/05 13:54:50;;;;;;;;;;;4.00;99.90;;;;;;4976490;28;20467;-89
2022/12/05 13:57:44;;;;;;;;;;;5.70;99.90;;;;;;5006689;28;20045;-89
2022/12/05 14:00:10;;;;;;;;;;;5.10;99.90;;;;;;4978922;28;19986;-90
2022/12/05 14:02:47;;;;;;;;;;;5.00;99.90;;;;;;5002871;28;19968;-89
2022/12/05 14:05:16;;;;;;;;;;;5.00;99.90;;;;;;4972246;28;19925;-91
2022/12/05 14:07:44;;;;;;;;;;;5.10;99.90;;;;;;5002494;28;19929;-91
2022/12/05 14:10:22;;;;;;;;;;;5.00;99.90;;;;;;4989710;28;19926;-92
2022/12/05 14:12:56;;;;;;;;;;;5.10;99.90;;;;;;5029356;28;19925;-91
2022/12/05 14:15:33;;;;;;;;;;;5.90;99.90;;;;;;4988186;28;20308;-89
2022/12/05 14:18:06;;;;;;;;;;;5.10;99.90;;;;;;4991256;28;20482;-90
2022/12/05 14:20:38;;;;;;;;;;;5.00;99.90;;;;;;4982691;28;19925;-92
2022/12/05 14:23:09;;;;;;;;;;;5.00;99.90;;;;;;4973962;28;19926;-89
2022/12/05 14:25:49;;;;;;;;;;;6.00;99.90;;;;;;4998112;28;19932;-89
2022/12/05 14:28:25;;;;;;;;;;;5.20;99.90;;;;;;4981999;28;19926;-89
2022/12/05 14:31:13;;;;;;;;;;;5.20;99.90;;;;;;5016734;28;19932;-92
2022/12/05 14:33:41;;;;;;;;;;;5.70;99.90;;;;;;4989831;28;19925;-90
2022/12/05 14:36:12;;;;;;;;;;;5.20;99.90;;;;;;5000942;28;20032;-90
2022/12/05 14:38:38;;;;;;;;;;;5.10;99.90;;;;;;5001179;28;19925;-90
2022/12/05 14:41:12;;;;;;;;;;;5.00;99.90;;;;;;4981970;28;20415;-90
2022/12/05 14:43:39;;;;;;;;;;;5.00;99.90;;;;;;4981526;28;19933;-91
2022/12/05 14:46:14;;;;;;;;;;;6.30;99.90;;;;;;4977332;28;19930;-88
2022/12/05 14:48:46;;;;;;;;;;;5.00;99.90;;;;;;4982210;28;19955;-88
2022/12/05 14:51:31;;;;;;;;;;;5.00;99.90;;;;;;4999635;28;20016;-90
2022/12/05 14:54:09;;;;;;;;;;;5.40;99.90;;;;;;4978186;28;19933;-89
2022/12/05 14:56:39;;;;;;;;;;;5.00;99.90;;;;;;5023081;28;19933;-89
2022/12/05 14:59:12;;;;;;;;;;;5.00;99.90;;;;;;4999792;28;19996;-87
2022/12/05 15:01:49;;;;;;;;;;;6.00;99.90;;;;;;4987981;28;19925;-89
2022/12/05 15:04:31;;;;;;;;;;;5.00;99.90;;;;;;4992940;28;19925;-91
2022/12/05 15:06:59;;;;;;;;;;;4.90;99.90;;;;;;5006399;28;19929;-88
2022/12/05 15:09:28;;;;;;;;;;;4.90;99.90;;;;;;5000020;28;19925;-89
2022/12/05 15:11:55;;;;;;;;;;;4.90;99.90;;;;;;4970977;28;19979;-88
2022/12/05 15:14:22;;;;;;;;;;;5.00;99.90;;;;;;4996823;28;19925;-89
2022/12/05 15:16:49;;;;;;;;;;;5.00;99.90;;;;;;4989375;28;19976;-88
2022/12/05 15:19:20;;;;;;;;;;;5.90;99.90;;;;;;4970178;28;19926;-87
2022/12/05 15:21:55;;;;;;;;;;;4.90;99.90;;;;;;4975940;28;19959;-87
2022/12/05 15:24:21;;;;;;;;;;;5.00;99.90;;;;;;5012720;28;19947;-87
2022/12/05 15:26:47;;;;;;;;;;;4.90;99.90;;;;;;4993819;28;19930;-87
2022/12/05 15:29:19;;;;;;;;;;;4.90;99.90;;;;;;4978185;28;19932;-87
2022/12/05 15:31:44;;;;;;;;;;;4.90;99.90;;;;;;4977081;28;19926;-87
2022/12/05 15:34:30;;;;;;;;;;;4.90;99.90;;;;;;4977939;28;19933;-87
2022/12/05 15:37:09;;;;;;;;;;;4.90;99.90;;;;;;4940820;28;20403;-86
2022/12/05 15:39:54;;;;;;;;;;;5.10;99.90;;;;;;4993385;28;19926;-87
2022/12/05 15:42:23;;;;;;;;;;;5.00;99.90;;;;;;4979852;28;19975;-87
2022/12/05 15:44:49;;;;;;;;;;;5.10;99.90;;;;;;4981189;28;19925;-87
2022/12/05 15:47:21;;;;;;;;;;;6.20;99.90;;;;;;4996772;28;19972;-87
2022/12/05 15:49:46;;;;;;;;;;;4.90;99.90;;;;;;4980889;28;19929;-87
2022/12/05 15:52:24;;;;;;;;;;;4.90;99.90;;;;;;4978973;28;19932;-87
2022/12/05 15:54:51;;;;;;;;;;;4.90;99.90;;;;;;4996634;28;20285;-86
2022/12/05 15:57:20;;;;;;;;;;;5.00;99.90;;;;;;4996485;28;19980;-87
2022/12/05 15:59:50;;;;;;;;;;;4.90;99.90;;;;;;4996732;28;20429;-87
2022/12/05 16:02:18;;;;;;;;;;;5.40;99.90;;;;;;4979499;28;20259;-86
2022/12/05 16:04:51;;;;;;;;;;;4.90;99.90;;;;;;4997230;28;19929;-87
2022/12/05 16:07:18;;;;;;;;;;;4.90;99.90;;;;;;4996259;28;19925;-86
2022/12/05 16:09:44;;;;;;;;;;;5.10;99.90;;;;;;4996413;28;19933;-87
2022/12/05 16:12:25;;;;;;;;;;;5.80;99.90;;;;;;4980045;28;19925;-87
2022/12/05 16:14:55;;;;;;;;;;;4.90;99.90;;;;;;4995775;28;19925;-87
2022/12/05 16:17:20;;;;;;;;;;;4.80;99.90;;;;;;4996117;28;19926;-86
2022/12/05 16:19:46;;;;;;;;;;;5.00;99.90;;;;;;4964351;28;19936;-87
2022/12/05 16:22:12;;;;;;;;;;;4.80;99.90;;;;;;4980035;28;19926;-86
2022/12/05 16:24:43;;;;;;;;;;;4.80;99.90;;;;;;4979559;28;20012;-87
2022/12/05 16:27:17;;;;;;;;;;;4.80;99.90;;;;;;4982096;28;19925;-86
2022/12/05 16:29:43;;;;;;;;;;;4.90;99.90;;;;;;4993661;28;20385;-86
2022/12/05 16:32:24;;;;;;;;;;;5.80;99.90;;;;;;4992094;28;19933;-86
2022/12/05 16:34:50;;;;;;;;;;;4.90;99.90;;;;;;4996285;28;19929;-86
2022/12/05 16:37:21;;;;;;;;;;;5.70;99.90;;;;;;4995560;28;20308;-87
2022/12/05 16:39:47;;;;;;;;;;;4.90;99.90;;;;;;4980236;28;20029;-86
2022/12/05 16:42:22;;;;;;;;;;;5.20;99.90;;;;;;4996387;28;19926;-86
2022/12/05 16:44:47;;;;;;;;;;;4.90;99.90;;;;;;4992197;28;19944;-87
2022/12/05 16:47:24;;;;;;;;;;;4.80;99.90;;;;;;4978511;28;19976;-87
2022/12/05 16:49:49;;;;;;;;;;;4.80;99.90;;;;;;5009379;28;19925;-87
2022/12/05 16:52:15;;;;;;;;;;;5.70;99.90;;;;;;4977761;28;19926;-86
2022/12/05 16:54:44;;;;;;;;;;;5.10;99.90;;;;;;4976478;28;20374;-87
2022/12/05 16:57:11;;;;;;;;;;;4.90;99.90;;;;;;4992377;28;19985;-86
2022/12/05 16:59:40;;;;;;;;;;;5.20;99.90;;;;;;4976834;28;19932;-87
2022/12/05 17:02:10;;;;;;;;;;;5.60;99.90;;;;;;4975769;28;20012;-87
2022/12/05 17:04:35;;;;;;;;;;;5.30;99.90;;;;;;4960778;28;19933;-87
2022/12/05 17:07:01;;;;;;;;;;;4.80;99.90;;;;;;5000208;28;19925;-86
2022/12/05 17:09:30;;;;;;;;;;;4.80;99.90;;;;;;4979624;28;19926;-87
2022/12/05 17:12:01;;;;;;;;;;;5.00;99.90;;;;;;4995636;28;20360;-87
2022/12/05 17:14:27;;;;;;;;;;;4.90;99.90;;;;;;4979711;28;19994;-87
2022/12/05 17:16:52;;;;;;;;;;;4.90;99.90;;;;;;4978892;28;19925;-86
2022/12/05 17:19:18;;;;;;;;;;;4.90;99.90;;;;;;4999743;28;20016;-86
2022/12/05 17:21:44;;;;;;;;;;;4.90;99.90;;;;;;4983125;28;19965;-86
2022/12/05 17:24:13;;;;;;;;;;;5.40;99.90;;;;;;4967103;28;19984;-86
2022/12/05 17:26:39;;;;;;;;;;;4.80;99.90;;;;;;4995676;28;20305;-87